createdAt,value
2022-11-04T15:13:59.912Z,9.75
2022-11-04T15:16:30.118Z,8.68
2022-11-04T15:18:59.363Z,8.88
2022-11-04T15:21:27.215Z,9.85
2022-11-04T15:23:55.592Z,9.73
2022-11-04T15:26:29.407Z,9.88
2022-11-04T15:28:59.309Z,9.40
2022-11-04T15:31:29.371Z,8.48
2022-11-04T15:34:13.210Z,7.90
2022-11-04T15:36:44.042Z,6.88
2022-11-04T15:39:21.728Z,6.47
2022-11-04T15:42:10.610Z,6.25
2022-11-04T15:44:38.789Z,6.78
2022-11-04T15:47:17.726Z,6.97
2022-11-04T15:49:45.932Z,6.80
2022-11-04T15:52:17.276Z,7.05
2022-11-04T15:54:50.671Z,6.63
2022-11-04T15:57:21.380Z,7.20
2022-11-04T16:02:45.689Z,8.65
2022-11-04T16:05:12.749Z,9.73
2022-11-04T16:07:41.564Z,8.75
2022-11-04T16:10:44.388Z,8.77
2022-11-04T16:13:17.205Z,9.25
2022-11-04T16:15:50.046Z,8.82
2022-11-04T16:18:37.031Z,9.02
2022-11-04T16:21:10.834Z,9.32
2022-11-04T16:23:49.961Z,7.63
2022-11-04T16:26:17.109Z,7.32
2022-11-04T16:28:44.062Z,7.15
2022-11-04T16:31:28.343Z,7.78
2022-11-04T16:33:55.639Z,6.53
2022-11-04T16:36:28.545Z,7.03
2022-11-04T16:39:02.890Z,7.05
2022-11-04T16:41:34.330Z,7.32
2022-11-04T16:44:01.152Z,6.60
2022-11-04T16:46:27.965Z,7.50
2022-11-04T16:48:54.781Z,7.32
2022-11-04T16:51:23.638Z,6.97
2022-11-04T16:53:52.530Z,7.07
2022-11-04T16:56:22.475Z,7.32
2022-11-04T16:58:49.501Z,7.15
2022-11-04T17:01:18.436Z,7.15
2022-11-04T17:03:45.723Z,7.47
2022-11-04T17:06:14.476Z,7.60
2022-11-04T17:08:42.211Z,7.80
2022-11-04T17:11:10.145Z,7.82
2022-11-04T17:13:37.674Z,7.70
2022-11-04T17:16:06.654Z,7.93
2022-11-04T17:18:34.713Z,7.68
2022-11-04T17:21:06.310Z,7.88
2022-11-04T17:23:33.801Z,7.82
2022-11-04T17:26:01.216Z,8.75
2022-11-04T17:28:28.122Z,7.88
2022-11-04T17:30:55.170Z,9.13
2022-11-04T17:33:22.386Z,8.45
2022-11-04T17:35:50.727Z,8.57
2022-11-04T17:38:18.687Z,8.18
2022-11-04T17:41:04.307Z,8.43
2022-11-04T17:43:49.920Z,8.02
2022-11-04T17:46:36.726Z,6.75
2022-11-04T17:49:24.319Z,8.90
2022-11-04T17:52:00.590Z,9.20
2022-11-04T17:54:32.583Z,9.48
2022-11-04T17:56:59.382Z,9.73
2022-11-04T17:59:28.397Z,10.38
2022-11-04T18:04:28.439Z,7.72
2022-11-04T18:07:01.379Z,10.45
2022-11-04T18:09:30.386Z,11.68
2022-11-04T18:12:15.913Z,12.05
2022-11-04T18:14:42.811Z,11.50
2022-11-04T18:17:10.747Z,12.45
2022-11-04T18:19:37.614Z,11.05
2022-11-04T18:22:04.543Z,7.47
2022-11-04T18:24:31.511Z,7.85
2022-11-04T18:27:01.565Z,8.48
2022-11-04T18:29:28.409Z,8.55
2022-11-04T18:31:55.265Z,9.88
2022-11-04T18:34:22.219Z,9.90
2022-11-04T18:36:49.373Z,10.43
2022-11-04T18:39:18.121Z,10.48
2022-11-04T18:41:46.119Z,11.00
2022-11-04T18:44:19.214Z,10.50
2022-11-04T18:46:47.613Z,10.00
2022-11-04T18:49:15.611Z,10.57
2022-11-04T18:51:42.999Z,10.48
2022-11-04T18:54:11.869Z,10.18
2022-11-04T18:56:39.214Z,10.35
2022-11-04T18:59:09.586Z,10.23
2022-11-04T19:01:36.720Z,10.48
2022-11-04T19:04:04.052Z,10.88
2022-11-04T19:06:33.735Z,10.38
2022-11-04T19:09:25.276Z,10.60
2022-11-04T19:12:14.155Z,9.93
2022-11-04T19:14:44.719Z,10.02
2022-11-04T19:17:11.762Z,10.85
2022-11-04T19:19:41.872Z,10.52
2022-11-04T19:22:09.480Z,10.85
2022-11-04T19:24:36.431Z,10.70
2022-11-04T19:27:04.394Z,10.93
2022-11-04T19:29:32.891Z,10.77
2022-11-04T19:32:00.484Z,10.70
2022-11-04T19:34:27.765Z,9.85
2022-11-04T19:36:54.666Z,10.63
2022-11-04T19:39:21.528Z,11.55
2022-11-04T19:42:06.729Z,11.13
2022-11-04T19:44:33.646Z,11.75
2022-11-04T19:47:00.431Z,11.43
2022-11-04T19:49:31.388Z,12.07
2022-11-04T19:51:59.101Z,11.65
2022-11-04T19:54:26.624Z,11.90
2022-11-04T19:56:53.412Z,12.55
2022-11-04T19:59:20.197Z,13.20
2022-11-04T20:01:47.409Z,13.55
2022-11-04T20:04:14.393Z,13.27
2022-11-04T20:06:41.369Z,15.32
2022-11-04T20:09:12.783Z,18.55
2022-11-04T20:11:59.162Z,18.92
2022-11-04T20:14:27.707Z,19.52
2022-11-04T20:16:54.886Z,21.33
2022-11-04T20:19:23.020Z,22.13
2022-11-04T20:21:50.720Z,23.20
2022-11-04T20:24:17.978Z,25.00
2022-11-04T20:26:46.663Z,24.67
2022-11-04T20:29:16.014Z,23.70
2022-11-04T20:31:44.024Z,24.10
2022-11-04T20:34:12.286Z,24.77
2022-11-04T20:36:39.975Z,25.55
2022-11-04T20:39:18.737Z,24.25
2022-11-04T20:41:47.171Z,21.52
2022-11-04T20:44:15.430Z,21.48
2022-11-04T20:46:42.953Z,20.02
2022-11-04T20:49:10.451Z,20.92
2022-11-04T20:51:48.680Z,19.63
2022-11-04T20:54:19.176Z,19.08
2022-11-04T20:56:46.031Z,19.70
2022-11-04T20:59:14.021Z,21.52
2022-11-04T21:01:43.623Z,20.00
2022-11-04T21:04:19.985Z,18.25
2022-11-04T21:06:48.918Z,19.42
2022-11-04T21:09:17.252Z,20.58
2022-11-04T21:11:44.069Z,20.85
2022-11-04T21:14:16.621Z,22.23
2022-11-04T21:16:43.984Z,21.17
2022-11-04T21:19:12.068Z,21.67
2022-11-04T21:21:42.311Z,22.55
2022-11-04T21:24:12.457Z,21.10
2022-11-04T21:26:40.329Z,22.73
2022-11-04T21:29:09.081Z,21.88
2022-11-04T21:31:37.119Z,24.15
2022-11-04T21:34:04.727Z,23.88
2022-11-04T21:36:32.495Z,24.55
2022-11-04T21:39:00.035Z,24.70
2022-11-04T21:41:33.221Z,25.67
2022-11-04T21:44:02.143Z,26.58
2022-11-04T21:46:30.705Z,25.23
2022-11-04T21:48:58.589Z,24.77
2022-11-04T21:51:29.046Z,27.10
2022-11-04T21:53:57.044Z,24.77
2022-11-04T21:56:29.330Z,25.92
2022-11-04T21:58:56.494Z,26.40
2022-11-04T22:01:28.493Z,27.20
2022-11-04T22:04:00.840Z,27.17
2022-11-04T22:06:34.072Z,26.75
2022-11-04T22:09:02.173Z,27.77
2022-11-04T22:11:31.474Z,28.73
2022-11-04T22:14:00.844Z,30.10
2022-11-04T22:16:29.665Z,28.98
2022-11-04T22:19:01.502Z,28.33
2022-11-04T22:21:30.849Z,26.08
2022-11-04T22:23:58.462Z,27.85
2022-11-04T22:26:31.636Z,28.25
2022-11-04T22:28:59.601Z,29.00
2022-11-04T22:31:35.507Z,27.15
2022-11-04T22:34:03.457Z,25.33
2022-11-04T22:36:32.590Z,26.25
2022-11-04T22:39:00.137Z,26.27
2022-11-04T22:41:31.977Z,27.45
2022-11-04T22:43:59.428Z,28.33
2022-11-04T22:46:29.352Z,28.50
2022-11-04T22:48:56.589Z,25.40
2022-11-04T22:51:23.549Z,25.90
2022-11-04T22:53:57.750Z,25.17
2022-11-04T22:56:27.363Z,24.17
2022-11-04T22:58:54.535Z,26.95
2022-11-04T23:01:23.031Z,25.35
2022-11-04T23:03:51.787Z,25.77
2022-11-04T23:06:20.950Z,25.17
2022-11-04T23:10:17.987Z,16.02
2022-11-04T23:13:03.425Z,16.15
2022-11-04T23:15:50.568Z,15.70
2022-11-04T23:18:36.037Z,15.13
2022-11-04T23:21:21.389Z,15.52
2022-11-04T23:24:06.838Z,15.10
2022-11-04T23:26:33.641Z,14.32
2022-11-04T23:29:19.889Z,14.20
2022-11-04T23:32:27.277Z,13.93
2022-11-04T23:35:17.758Z,13.68
2022-11-04T23:37:44.984Z,13.80
2022-11-04T23:40:11.775Z,13.40
2022-11-04T23:42:38.607Z,13.90
2022-11-04T23:45:40.896Z,14.70
2022-11-04T23:48:28.863Z,13.65
2022-11-04T23:51:20.011Z,14.27
2022-11-04T23:54:05.823Z,14.55
